Time;durP1;ratioP1;P1;durP2;ratioP2;P2;SDS_P1;SDS_P2;PMS_P1;PMS_P2;Temp;Humidity;BMP_temperature;BMP_pressure;BME280_temperature;BME280_humidity;BME280_pressure;Samples;Min_cycle;Max_cycle;Signal;HPM_P1;HPM_P2
2023/09/19 00:00:27;;;;;;;2.50;2.00;;;15.50;99.90;;;;;;5075905;28;20241;-83
2023/09/19 00:02:55;;;;;;;2.77;1.57;;;15.50;99.90;;;;;;5079748;28;20337;-84
2023/09/19 00:05:23;;;;;;;2.13;1.50;;;15.50;99.90;;;;;;5098513;28;20241;-84
2023/09/19 00:07:52;;;;;;;2.83;1.60;;;15.50;99.90;;;;;;5097848;28;20218;-83
2023/09/19 00:10:19;;;;;;;2.20;1.70;;;15.50;99.90;;;;;;5085516;28;20218;-83
2023/09/19 00:12:46;;;;;;;2.53;1.60;;;15.50;99.90;;;;;;5087600;28;20228;-84
2023/09/19 00:15:17;;;;;;;3.53;2.67;;;15.50;99.90;;;;;;5100426;28;20222;-83
2023/09/19 00:17:44;;;;;;;2.23;1.80;;;15.50;99.90;;;;;;5084063;28;20245;-82
2023/09/19 00:20:13;;;;;;;3.67;1.87;;;15.50;99.90;;;;;;5098042;27;20214;-83
2023/09/19 00:22:42;;;;;;;3.60;1.70;;;15.50;99.90;;;;;;5084183;28;20221;-83
2023/09/19 00:25:11;;;;;;;3.23;1.90;;;15.50;99.90;;;;;;5097943;28;20217;-84
2023/09/19 00:27:41;;;;;;;2.77;1.83;;;15.50;99.90;;;;;;5100106;28;20242;-82
2023/09/19 00:30:14;;;;;;;2.93;1.80;;;15.50;99.90;;;;;;5083419;28;20229;-82
2023/09/19 00:32:42;;;;;;;3.20;1.47;;;15.50;99.90;;;;;;5090123;28;20342;-82
2023/09/19 00:35:10;;;;;;;3.37;1.80;;;15.50;99.90;;;;;;5080202;28;20240;-83
2023/09/19 00:37:39;;;;;;;3.97;2.03;;;15.50;99.90;;;;;;5081722;28;20221;-82
2023/09/19 00:40:11;;;;;;;2.60;1.67;;;15.50;99.90;;;;;;5096149;28;20251;-84
2023/09/19 00:42:40;;;;;;;3.67;1.50;;;15.50;99.90;;;;;;5079193;28;20248;-82
2023/09/19 00:45:10;;;;;;;4.20;1.87;;;15.50;99.90;;;;;;5077958;28;20228;-84
2023/09/19 00:47:38;;;;;;;4.50;2.07;;;15.60;99.90;;;;;;5099965;28;20221;-83
2023/09/19 00:50:07;;;;;;;4.07;1.93;;;15.60;99.90;;;;;;5095730;28;20218;-83
2023/09/19 00:52:36;;;;;;;3.97;1.97;;;15.50;99.90;;;;;;5093993;28;20226;-83
2023/09/19 00:55:05;;;;;;;3.47;1.83;;;15.60;99.90;;;;;;5079620;28;20218;-83
2023/09/19 00:57:34;;;;;;;3.07;1.57;;;15.60;99.90;;;;;;5083701;28;20261;-83
2023/09/19 01:00:05;;;;;;;4.00;2.00;;;15.60;99.90;;;;;;5095548;28;20243;-83
2023/09/19 01:02:32;;;;;;;4.50;2.40;;;15.70;99.90;;;;;;5080822;28;20244;-82
2023/09/19 01:04:59;;;;;;;3.00;1.93;;;15.70;99.90;;;;;;5097307;28;20282;-83
2023/09/19 01:07:26;;;;;;;4.13;2.00;;;15.60;99.90;;;;;;5077459;28;20268;-83
2023/09/19 01:09:54;;;;;;;3.80;2.00;;;15.60;99.90;;;;;;5080327;28;20268;-84
2023/09/19 01:12:32;;;;;;;4.07;2.03;;;15.60;99.90;;;;;;5080351;28;20853;-84
2023/09/19 01:15:07;;;;;;;3.00;1.90;;;15.70;99.90;;;;;;5094783;28;20217;-84
2023/09/19 01:17:44;;;;;;;4.80;2.10;;;15.70;99.90;;;;;;5093907;28;20230;-83
2023/09/19 01:20:27;;;;;;;3.20;2.10;;;15.70;99.90;;;;;;5081147;28;20226;-86
2023/09/19 01:23:03;;;;;;;4.27;2.40;;;15.70;99.90;;;;;;5089906;23;20696;-77
2023/09/19 01:26:08;;;;;;;4.23;2.20;;;15.70;99.90;;;;;;5037096;28;21667;-77
2023/09/19 01:28:47;;;;;;;3.60;2.20;;;15.70;99.90;;;;;;5052699;28;20222;-77
2023/09/19 01:31:15;;;;;;;3.40;2.03;;;15.80;99.90;;;;;;5033408;28;20760;-77
2023/09/19 01:33:59;;;;;;;4.33;2.50;;;15.80;99.90;;;;;;5042550;28;20384;-77
2023/09/19 01:36:30;;;;;;;3.77;2.50;;;15.70;99.90;;;;;;5072735;28;20230;-77
2023/09/19 01:39:05;;;;;;;3.80;2.40;;;15.70;99.90;;;;;;5058635;28;20514;-77
2023/09/19 01:41:55;;;;;;;5.77;2.90;;;15.70;99.90;;;;;;5056037;28;20598;-77
2023/09/19 01:44:29;;;;;;;6.27;2.80;;;15.70;99.90;;;;;;5052970;28;20739;-77
2023/09/19 01:47:03;;;;;;;5.80;2.73;;;15.60;99.90;;;;;;5076750;28;20217;-76
2023/09/19 01:49:46;;;;;;;4.23;2.20;;;15.60;99.90;;;;;;5051717;28;20700;-77
2023/09/19 01:52:16;;;;;;;4.83;2.23;;;15.60;99.90;;;;;;5069655;28;20699;-76
2023/09/19 01:54:49;;;;;;;4.30;2.47;;;15.60;99.90;;;;;;5054632;28;20832;-77
2023/09/19 01:57:23;;;;;;;5.43;2.93;;;15.60;99.90;;;;;;5051611;28;20223;-76
2023/09/19 01:59:56;;;;;;;5.43;3.20;;;15.50;99.90;;;;;;5052896;28;20219;-77
2023/09/19 02:02:25;;;;;;;6.37;2.73;;;15.50;99.90;;;;;;5054895;28;20222;-77
2023/09/19 02:04:53;;;;;;;4.77;2.70;;;15.50;99.90;;;;;;5060330;28;20287;-77
2023/09/19 02:07:20;;;;;;;3.83;2.30;;;15.50;99.90;;;;;;5052689;28;20220;-77
2023/09/19 02:09:47;;;;;;;6.10;2.40;;;15.40;99.90;;;;;;5057053;28;20313;-77
2023/09/19 02:12:15;;;;;;;4.57;2.80;;;15.40;99.90;;;;;;5074015;28;20230;-77
2023/09/19 02:14:41;;;;;;;5.03;2.83;;;15.40;99.90;;;;;;5057839;28;20322;-77
2023/09/19 02:17:11;;;;;;;4.47;2.50;;;15.40;99.90;;;;;;5057001;28;20771;-77
2023/09/19 02:19:40;;;;;;;4.93;2.73;;;15.30;99.90;;;;;;5057945;28;20271;-77
2023/09/19 02:22:10;;;;;;;5.03;2.60;;;15.30;99.90;;;;;;5056515;28;20312;-80
2023/09/19 02:24:37;;;;;;;4.77;2.73;;;15.30;99.90;;;;;;5082177;28;20271;-80
2023/09/19 02:27:05;;;;;;;5.90;2.97;;;15.30;99.90;;;;;;5081966;28;20978;-80
2023/09/19 02:29:34;;;;;;;6.07;3.00;;;15.20;99.90;;;;;;5080166;28;20817;-80
2023/09/19 02:32:02;;;;;;;6.73;3.27;;;15.20;99.90;;;;;;5095294;28;20229;-79
2023/09/19 02:34:29;;;;;;;4.97;2.70;;;15.20;99.90;;;;;;5100531;28;20293;-80
2023/09/19 02:36:57;;;;;;;4.33;2.80;;;15.20;99.90;;;;;;5087085;28;20715;-80
2023/09/19 02:39:24;;;;;;;6.90;2.73;;;15.20;99.90;;;;;;5102935;28;20810;-79
2023/09/19 02:41:51;;;;;;;7.83;2.63;;;15.20;99.90;;;;;;5083939;28;20583;-79
2023/09/19 02:44:19;;;;;;;5.90;2.90;;;15.20;99.90;;;;;;5084919;28;20240;-80
2023/09/19 02:46:47;;;;;;;4.60;3.07;;;15.20;99.90;;;;;;5080421;28;20308;-80
2023/09/19 02:49:14;;;;;;;4.87;2.80;;;15.20;99.90;;;;;;5081399;28;20322;-79
2023/09/19 02:51:41;;;;;;;6.53;3.20;;;15.20;99.90;;;;;;5084980;28;20251;-80
2023/09/19 02:54:09;;;;;;;6.70;3.10;;;15.10;99.90;;;;;;5082863;28;20229;-80
2023/09/19 02:56:37;;;;;;;4.93;2.90;;;15.10;99.90;;;;;;5103335;28;20298;-79
2023/09/19 02:59:04;;;;;;;4.87;3.10;;;15.20;99.90;;;;;;5085113;28;20970;-79
2023/09/19 03:01:32;;;;;;;5.30;2.80;;;15.20;99.90;;;;;;5084171;28;20231;-79
2023/09/19 03:03:59;;;;;;;8.23;2.90;;;15.20;99.90;;;;;;5085266;28;20221;-79
2023/09/19 03:06:26;;;;;;;5.40;2.93;;;15.20;99.90;;;;;;5097976;28;20242;-79
2023/09/19 03:08:55;;;;;;;6.73;2.60;;;15.20;99.90;;;;;;5076581;28;20317;-79
2023/09/19 03:11:24;;;;;;;6.80;3.03;;;15.20;99.90;;;;;;5081835;28;20217;-79
2023/09/19 03:13:56;;;;;;;5.47;2.60;;;15.20;99.90;;;;;;5082674;28;20245;-79
2023/09/19 03:16:25;;;;;;;5.53;2.50;;;15.20;99.90;;;;;;5078870;28;20252;-79
2023/09/19 03:18:54;;;;;;;5.60;2.30;;;15.20;99.90;;;;;;5086083;28;20271;-79
2023/09/19 03:21:23;;;;;;;5.83;2.33;;;15.20;99.90;;;;;;5081529;28;20782;-79
2023/09/19 03:23:50;;;;;;;8.87;2.70;;;15.20;99.90;;;;;;5084681;28;20745;-79
2023/09/19 03:26:17;;;;;;;3.73;2.20;;;15.20;99.90;;;;;;5079914;28;20217;-79
2023/09/19 03:28:47;;;;;;;5.53;2.13;;;15.20;99.90;;;;;;5077350;28;20218;-79
2023/09/19 03:31:15;;;;;;;5.77;2.27;;;15.20;99.90;;;;;;5084249;28;20290;-78
2023/09/19 03:33:42;;;;;;;5.50;2.33;;;15.20;99.90;;;;;;5083724;28;20222;-79
2023/09/19 03:36:08;;;;;;;5.80;2.80;;;15.20;99.90;;;;;;5083523;28;20486;-79
2023/09/19 03:38:35;;;;;;;6.27;2.30;;;15.20;99.90;;;;;;5085256;28;20309;-79
2023/09/19 03:41:03;;;;;;;5.70;2.10;;;15.20;99.90;;;;;;5083858;28;20214;-78
2023/09/19 03:43:29;;;;;;;9.13;2.60;;;15.10;99.90;;;;;;5084277;28;20320;-79
2023/09/19 03:46:02;;;;;;;4.97;2.30;;;15.10;99.90;;;;;;5084409;28;20239;-79
2023/09/19 03:48:29;;;;;;;6.30;2.73;;;15.10;99.90;;;;;;5081457;28;20225;-79
2023/09/19 03:50:57;;;;;;;4.00;1.77;;;15.10;99.90;;;;;;5084689;28;20227;-79
2023/09/19 03:53:24;;;;;;;6.47;2.30;;;15.10;99.90;;;;;;5097755;28;20321;-79
2023/09/19 03:55:51;;;;;;;8.10;2.17;;;15.00;99.90;;;;;;5083596;28;20219;-80
2023/09/19 03:58:18;;;;;;;6.87;2.10;;;15.00;99.90;;;;;;5082825;28;20241;-79
2023/09/19 04:00:45;;;;;;;5.87;2.70;;;14.90;99.90;;;;;;5083295;28;20211;-80
2023/09/19 04:03:20;;;;;;;4.70;2.20;;;14.90;99.90;;;;;;5069060;28;20846;-79
2023/09/19 04:05:48;;;;;;;3.90;2.00;;;14.80;99.90;;;;;;5078472;28;20232;-79
2023/09/19 04:08:15;;;;;;;4.10;1.67;;;14.80;99.90;;;;;;5082475;28;20222;-81
2023/09/19 04:10:44;;;;;;;5.70;1.80;;;14.80;99.90;;;;;;5084470;28;20422;-79
2023/09/19 04:13:11;;;;;;;3.97;1.90;;;14.70;99.90;;;;;;5092687;28;20214;-79
2023/09/19 04:15:40;;;;;;;4.93;1.70;;;14.70;99.90;;;;;;5078790;28;20297;-79
2023/09/19 04:18:07;;;;;;;5.83;1.70;;;14.60;99.90;;;;;;5081293;28;20564;-79
2023/09/19 04:20:35;;;;;;;4.97;1.70;;;14.60;99.90;;;;;;5079592;28;21001;-80
2023/09/19 04:23:04;;;;;;;3.80;1.63;;;14.50;99.90;;;;;;5098001;28;20655;-81
2023/09/19 04:25:31;;;;;;;3.60;1.70;;;14.50;99.90;;;;;;5079050;28;20224;-80
2023/09/19 04:27:59;;;;;;;4.70;1.93;;;14.40;99.90;;;;;;5099596;27;20598;-80
2023/09/19 04:30:25;;;;;;;6.60;1.90;;;14.30;99.90;;;;;;5088652;28;20232;-78
2023/09/19 04:32:53;;;;;;;3.17;1.53;;;14.30;99.90;;;;;;5078136;28;20216;-78
2023/09/19 04:35:20;;;;;;;5.67;1.67;;;14.20;99.90;;;;;;5081109;28;20258;-79
2023/09/19 04:37:48;;;;;;;6.90;1.80;;;14.20;99.90;;;;;;5099279;28;20223;-79
2023/09/19 04:40:17;;;;;;;5.17;1.63;;;14.10;99.90;;;;;;5100824;28;20224;-78
2023/09/19 04:42:44;;;;;;;7.10;2.00;;;14.10;99.90;;;;;;5079778;28;20319;-80
2023/09/19 04:45:11;;;;;;;4.17;1.50;;;14.00;99.90;;;;;;5079280;28;20208;-79
2023/09/19 04:47:39;;;;;;;6.47;1.73;;;14.00;99.90;;;;;;5078279;28;20256;-78
2023/09/19 04:50:11;;;;;;;4.53;1.77;;;13.90;99.90;;;;;;5097591;28;20559;-79
2023/09/19 04:52:39;;;;;;;6.97;1.93;;;13.90;99.90;;;;;;5082148;28;20744;-79
2023/09/19 04:55:09;;;;;;;5.20;1.50;;;13.80;99.90;;;;;;5099915;28;20222;-79
2023/09/19 04:57:36;;;;;;;4.83;1.80;;;13.80;99.90;;;;;;5096704;28;20769;-79
2023/09/19 05:00:06;;;;;;;4.80;1.80;;;13.80;99.90;;;;;;5075512;28;20224;-79
2023/09/19 05:02:34;;;;;;;4.77;1.70;;;13.70;99.90;;;;;;5097678;28;20224;-79
2023/09/19 05:05:01;;;;;;;7.73;2.33;;;13.70;99.90;;;;;;5081633;28;20712;-78
2023/09/19 05:07:28;;;;;;;7.53;2.40;;;13.60;99.90;;;;;;5078129;28;20230;-79
2023/09/19 05:09:55;;;;;;;7.30;1.93;;;13.60;99.90;;;;;;5099476;28;20232;-76
2023/09/19 05:12:23;;;;;;;6.90;1.83;;;13.50;99.90;;;;;;5073720;28;20226;-77
2023/09/19 05:14:50;;;;;;;7.37;1.97;;;13.50;99.90;;;;;;5088733;28;20236;-77
2023/09/19 05:17:17;;;;;;;5.83;1.30;;;13.50;99.90;;;;;;5096673;28;20220;-76
2023/09/19 05:19:44;;;;;;;13.27;2.23;;;13.50;99.90;;;;;;5079125;28;20242;-76
2023/09/19 05:22:12;;;;;;;5.67;1.60;;;13.50;99.90;;;;;;5094794;28;20224;-76
2023/09/19 05:24:39;;;;;;;7.67;1.90;;;13.40;99.90;;;;;;5094638;28;20235;-77
2023/09/19 05:27:07;;;;;;;6.53;1.70;;;13.40;99.90;;;;;;5091430;28;20310;-76
2023/09/19 05:29:35;;;;;;;6.67;1.87;;;13.40;99.90;;;;;;5093205;28;20229;-76
2023/09/19 05:32:03;;;;;;;6.07;2.10;;;13.40;99.90;;;;;;5094239;28;20226;-76
2023/09/19 05:34:30;;;;;;;6.10;2.00;;;13.40;99.90;;;;;;5091224;28;20216;-78
2023/09/19 05:36:57;;;;;;;6.17;1.93;;;13.40;99.90;;;;;;5094449;28;20281;-78
2023/09/19 05:39:23;;;;;;;7.93;2.10;;;13.40;99.90;;;;;;5099955;28;21695;-78
2023/09/19 05:41:50;;;;;;;5.37;1.43;;;13.40;99.90;;;;;;5096666;28;20223;-78
2023/09/19 05:44:17;;;;;;;6.93;2.53;;;13.40;99.90;;;;;;5077983;28;20882;-78
2023/09/19 05:46:45;;;;;;;5.17;2.03;;;13.40;99.90;;;;;;5095373;28;20638;-78
2023/09/19 05:49:12;;;;;;;7.10;1.67;;;13.30;99.90;;;;;;5081117;28;20227;-78
2023/09/19 05:51:39;;;;;;;6.97;1.67;;;13.30;99.90;;;;;;5092112;28;20229;-78
2023/09/19 05:54:06;;;;;;;9.07;1.80;;;13.30;99.90;;;;;;5079701;28;20234;-78
2023/09/19 05:56:33;;;;;;;5.03;1.93;;;13.30;99.90;;;;;;5094838;28;20594;-78
2023/09/19 05:59:00;;;;;;;5.93;1.80;;;13.30;99.90;;;;;;5092728;28;20278;-78
2023/09/19 06:01:27;;;;;;;9.87;2.20;;;13.30;99.90;;;;;;5079789;28;20230;-77
2023/09/19 06:03:55;;;;;;;9.33;2.57;;;13.30;99.90;;;;;;5088608;28;20936;-77
2023/09/19 06:06:24;;;;;;;5.87;1.90;;;13.30;99.90;;;;;;5093354;28;20297;-78
2023/09/19 06:08:51;;;;;;;5.63;1.73;;;13.30;99.90;;;;;;5079898;28;20226;-77
2023/09/19 06:11:20;;;;;;;7.37;2.37;;;13.30;99.90;;;;;;5100156;28;20231;-78
2023/09/19 06:13:47;;;;;;;6.83;1.80;;;13.40;99.90;;;;;;5095406;28;20230;-78
2023/09/19 06:16:14;;;;;;;7.13;2.03;;;13.50;99.90;;;;;;5097475;28;20223;-78
2023/09/19 06:18:41;;;;;;;5.40;2.20;;;13.50;99.90;;;;;;5099960;28;20789;-78
2023/09/19 06:21:09;;;;;;;8.90;2.43;;;13.60;99.90;;;;;;5091659;28;20223;-78
2023/09/19 06:23:35;;;;;;;8.77;2.40;;;13.70;99.90;;;;;;5096108;28;20815;-78
2023/09/19 06:26:03;;;;;;;6.20;2.00;;;13.80;99.90;;;;;;5102930;28;20297;-78
2023/09/19 06:28:30;;;;;;;7.47;2.17;;;13.90;99.90;;;;;;5099191;28;20280;-77
2023/09/19 06:30:57;;;;;;;5.47;1.83;;;14.00;99.90;;;;;;5098913;28;20232;-78
2023/09/19 06:33:23;;;;;;;7.50;2.40;;;14.10;99.90;;;;;;5092548;28;20469;-78
2023/09/19 06:35:53;;;;;;;9.20;2.40;;;14.20;99.90;;;;;;5079081;28;20345;-78
2023/09/19 06:38:21;;;;;;;7.30;2.20;;;14.30;99.90;;;;;;5100598;28;20228;-78
2023/09/19 06:40:48;;;;;;;6.27;2.60;;;14.40;99.90;;;;;;5099814;28;20220;-78
2023/09/19 06:43:15;;;;;;;5.70;2.30;;;14.40;99.90;;;;;;5096657;28;20260;-78
2023/09/19 06:45:42;;;;;;;8.83;2.70;;;14.50;99.90;;;;;;5095130;28;20219;-78
2023/09/19 06:48:10;;;;;;;6.53;2.10;;;14.50;99.90;;;;;;5079657;28;20228;-78
2023/09/19 06:50:36;;;;;;;7.13;2.40;;;14.60;99.90;;;;;;5076547;28;20215;-78
2023/09/19 06:53:04;;;;;;;5.80;2.43;;;14.60;99.90;;;;;;5080521;28;20222;-78
2023/09/19 06:55:32;;;;;;;9.33;2.40;;;14.70;99.90;;;;;;5098972;28;20804;-77
2023/09/19 06:57:59;;;;;;;6.10;2.20;;;14.70;99.90;;;;;;5099931;28;20750;-78
2023/09/19 07:00:26;;;;;;;7.20;2.03;;;14.80;99.90;;;;;;5098877;28;20249;-78
2023/09/19 07:02:58;;;;;;;8.13;2.30;;;14.80;99.90;;;;;;5076985;28;20226;-78
2023/09/19 07:05:25;;;;;;;10.47;2.57;;;14.90;99.90;;;;;;5081874;28;20231;-78
2023/09/19 07:07:52;;;;;;;8.67;2.33;;;14.90;99.90;;;;;;5097345;28;20226;-78
2023/09/19 07:10:19;;;;;;;10.93;2.53;;;15.00;99.90;;;;;;5105401;28;20224;-78
2023/09/19 07:12:47;;;;;;;9.67;2.77;;;15.00;99.90;;;;;;5087656;28;20230;-78
2023/09/19 07:15:14;;;;;;;7.67;2.30;;;15.00;99.90;;;;;;5098980;28;20229;-78
2023/09/19 07:17:41;;;;;;;5.43;2.10;;;15.10;99.90;;;;;;5083630;28;20221;-78
2023/09/19 07:20:10;;;;;;;6.27;2.20;;;15.10;99.90;;;;;;5086936;28;20925;-78
2023/09/19 07:22:39;;;;;;;7.53;2.27;;;15.10;99.90;;;;;;5079323;28;20303;-78
2023/09/19 07:25:06;;;;;;;6.93;2.20;;;15.10;99.90;;;;;;5084457;22;20651;-84
2023/09/19 07:27:33;;;;;;;7.63;2.20;;;15.20;99.90;;;;;;5051492;28;21649;-83
2023/09/19 07:30:01;;;;;;;9.77;2.20;;;15.20;99.90;;;;;;5058398;28;20486;-83
2023/09/19 07:32:28;;;;;;;7.90;2.23;;;15.30;99.90;;;;;;5058601;28;20258;-83
2023/09/19 07:34:55;;;;;;;8.57;2.40;;;15.30;99.90;;;;;;5055101;28;20348;-83
2023/09/19 07:37:22;;;;;;;7.43;2.33;;;15.40;99.90;;;;;;5053880;28;20225;-83
2023/09/19 07:39:49;;;;;;;6.47;2.23;;;15.50;99.90;;;;;;5054757;28;20347;-84
2023/09/19 07:42:17;;;;;;;5.57;2.23;;;15.60;99.90;;;;;;5054457;28;20214;-83
2023/09/19 07:44:46;;;;;;;8.13;2.50;;;15.60;99.90;;;;;;5052717;28;20226;-83
2023/09/19 07:47:14;;;;;;;8.97;2.23;;;15.60;99.90;;;;;;5061210;28;20237;-84
2023/09/19 07:49:42;;;;;;;9.33;2.70;;;15.60;99.90;;;;;;5059945;28;20449;-83
2023/09/19 07:52:09;;;;;;;12.27;2.90;;;15.70;99.90;;;;;;5065320;28;20304;-83
2023/09/19 07:54:36;;;;;;;8.87;2.73;;;15.70;99.90;;;;;;5059694;28;20259;-83
2023/09/19 07:57:04;;;;;;;6.10;2.40;;;15.80;99.90;;;;;;5064764;28;20467;-83
2023/09/19 07:59:30;;;;;;;6.63;2.37;;;15.80;99.90;;;;;;5056957;28;20727;-83
2023/09/19 08:01:57;;;;;;;9.03;2.97;;;15.80;99.90;;;;;;5055157;28;20817;-84
2023/09/19 08:04:26;;;;;;;8.27;2.33;;;15.80;99.90;;;;;;5076299;28;20240;-83
2023/09/19 08:06:53;;;;;;;8.63;3.03;;;15.80;99.90;;;;;;5058306;28;20214;-83
2023/09/19 08:09:21;;;;;;;10.40;3.23;;;15.70;99.90;;;;;;5056790;28;20288;-83
2023/09/19 08:11:47;;;;;;;8.03;3.07;;;15.70;99.90;;;;;;5055517;28;21003;-83
2023/09/19 08:14:15;;;;;;;11.83;2.67;;;15.60;99.90;;;;;;5072028;28;20534;-83
2023/09/19 08:16:43;;;;;;;7.57;2.47;;;15.50;99.90;;;;;;5061478;28;20262;-83
2023/09/19 08:19:11;;;;;;;10.87;2.57;;;15.40;99.90;;;;;;5063278;28;20499;-83
2023/09/19 08:21:39;;;;;;;5.93;2.20;;;15.30;99.90;;;;;;5076707;28;20233;-83
2023/09/19 08:24:07;;;;;;;8.97;2.40;;;15.20;99.90;;;;;;5059172;28;20252;-83
2023/09/19 08:26:34;;;;;;;7.07;2.40;;;15.20;99.90;;;;;;5054497;28;20250;-83
2023/09/19 08:29:04;;;;;;;6.17;2.20;;;15.10;99.90;;;;;;5076058;28;20355;-83
2023/09/19 08:31:31;;;;;;;5.60;2.23;;;15.10;99.90;;;;;;5061359;28;20225;-83
2023/09/19 08:33:58;;;;;;;10.13;2.30;;;15.10;99.90;;;;;;5057564;28;21461;-83
2023/09/19 08:36:24;;;;;;;7.90;2.53;;;15.20;99.90;;;;;;5067670;28;20235;-82
2023/09/19 08:38:52;;;;;;;8.50;2.37;;;15.20;99.90;;;;;;5059648;28;20233;-84
2023/09/19 08:41:19;;;;;;;7.73;2.37;;;15.30;99.90;;;;;;5077038;28;20222;-82
2023/09/19 08:43:47;;;;;;;9.13;2.43;;;15.40;99.90;;;;;;5057782;28;20219;-83
2023/09/19 08:46:16;;;;;;;8.63;2.43;;;15.50;99.90;;;;;;5056448;28;20222;-83
2023/09/19 08:48:48;;;;;;;8.83;2.67;;;15.60;99.90;;;;;;5063904;28;20312;-84
2023/09/19 08:51:19;;;;;;;10.13;2.63;;;15.70;99.90;;;;;;5074199;28;20264;-82
2023/09/19 08:54:04;;;;;;;6.43;2.27;;;15.80;99.90;;;;;;5074727;28;20227;-84
2023/09/19 08:56:32;;;;;;;6.67;2.53;;;15.80;99.90;;;;;;5065170;28;20608;-84
2023/09/19 08:59:03;;;;;;;9.23;2.70;;;15.80;99.90;;;;;;5055165;28;20222;-83
2023/09/19 09:01:32;;;;;;;5.23;2.60;;;15.90;99.90;;;;;;5058572;28;20786;-84
2023/09/19 09:03:59;;;;;;;12.17;2.23;;;16.00;99.90;;;;;;5057922;28;20733;-83
2023/09/19 09:06:27;;;;;;;7.53;2.67;;;16.00;99.90;;;;;;5059815;28;20659;-83
2023/09/19 09:08:56;;;;;;;8.43;2.53;;;16.10;99.90;;;;;;5055074;28;20214;-82
2023/09/19 09:11:24;;;;;;;6.73;2.20;;;16.20;99.90;;;;;;5075302;28;20766;-83
2023/09/19 09:13:51;;;;;;;7.90;2.77;;;16.30;99.90;;;;;;5058487;28;20515;-82
2023/09/19 09:16:18;;;;;;;8.00;2.37;;;16.30;99.90;;;;;;5061720;28;20817;-82
2023/09/19 09:18:45;;;;;;;8.40;2.30;;;16.40;99.90;;;;;;5074449;28;20226;-82
2023/09/19 09:21:15;;;;;;;8.80;3.10;;;16.50;99.90;;;;;;5071156;28;20221;-82
2023/09/19 09:23:42;;;;;;;9.27;2.70;;;16.60;99.90;;;;;;5056820;28;21927;-82
2023/09/19 09:26:10;;;;;;;7.17;2.37;;;16.70;99.90;;;;;;5065238;28;20326;-83
2023/09/19 09:28:45;;;;;;;9.60;2.90;;;16.80;99.90;;;;;;5066104;28;20215;-82
2023/09/19 09:31:23;;;;;;;7.90;2.67;;;16.80;99.90;;;;;;5065977;28;20245;-82
2023/09/19 09:33:55;;;;;;;7.90;2.67;;;16.90;99.90;;;;;;5077945;28;20349;-82
2023/09/19 09:36:35;;;;;;;8.23;2.70;;;17.00;99.90;;;;;;5059553;28;20234;-82
2023/09/19 09:39:15;;;;;;;10.33;3.00;;;17.10;99.90;;;;;;5063942;28;20232;-82
2023/09/19 09:41:43;;;;;;;9.23;2.60;;;17.10;99.90;;;;;;5055404;28;20226;-82
2023/09/19 09:44:15;;;;;;;5.90;2.10;;;17.30;99.90;;;;;;5077321;28;20785;-83
2023/09/19 09:49:34;;;;;;;12.73;2.83;;;17.60;99.90;;;;;;5044533;28;20238;-82
2023/09/19 09:52:05;;;;;;;7.70;2.27;;;17.80;99.90;;;;;;5055091;28;20227;-82
2023/09/19 09:54:36;;;;;;;9.15;2.30;;;18.00;99.90;;;;;;5054848;28;20231;-85
2023/09/19 09:57:14;;;;;;;9.05;2.80;;;18.20;99.90;;;;;;5072455;28;20211;-83
2023/09/19 09:59:49;;;;;;;9.93;2.60;;;18.40;99.90;;;;;;5061160;28;20309;-82
2023/09/19 10:02:22;;;;;;;8.10;2.80;;;18.70;99.90;;;;;;5064126;28;20222;-84
2023/09/19 10:05:07;;;;;;;6.60;2.53;;;18.90;99.90;;;;;;5062033;28;20223;-83
2023/09/19 10:07:38;;;;;;;4.07;2.10;;;19.20;99.90;;;;;;5071946;28;20313;-82
2023/09/19 10:10:15;;;;;;;6.88;2.00;;;19.30;99.90;;;;;;5078622;28;20940;-83
2023/09/19 10:12:48;;;;;;;6.45;2.25;;;19.60;99.90;;;;;;5054718;28;20232;-84
2023/09/19 10:15:17;;;;;;;10.98;2.58;;;19.70;99.90;;;;;;5072783;28;20223;-82
2023/09/19 10:17:45;;;;;;;8.13;2.28;;;19.80;99.90;;;;;;5070878;28;20238;-83
2023/09/19 10:20:36;;;;;;;4.15;1.92;;;20.00;99.80;;;;;;5072249;28;20295;-83
2023/09/19 10:23:12;;;;;;;4.85;1.88;;;20.00;99.00;;;;;;5059143;28;20221;-82
2023/09/19 10:25:40;;;;;;;7.03;2.28;;;20.10;98.30;;;;;;5046670;28;20269;-83
2023/09/19 10:28:11;;;;;;;5.55;1.98;;;20.20;98.50;;;;;;5045475;28;20232;-83
2023/09/19 10:30:41;;;;;;;4.88;1.85;;;20.20;98.20;;;;;;5044332;28;20328;-83
2023/09/19 10:33:09;;;;;;;6.70;1.90;;;20.10;98.10;;;;;;5063872;28;20228;-84
2023/09/19 10:35:40;;;;;;;5.90;1.67;;;20.10;97.60;;;;;;5063728;28;20808;-83
2023/09/19 10:38:08;;;;;;;4.25;2.03;;;20.00;97.60;;;;;;5058470;28;20215;-84
2023/09/19 10:40:40;;;;;;;6.22;2.00;;;20.00;98.00;;;;;;5059703;28;20251;-82
2023/09/19 10:43:12;;;;;;;8.60;1.88;;;20.00;98.30;;;;;;5041844;28;20212;-83
2023/09/19 10:45:41;;;;;;;4.45;2.05;;;19.90;97.30;;;;;;5049094;28;20219;-82
2023/09/19 10:48:09;;;;;;;5.00;2.22;;;19.90;98.00;;;;;;5065549;28;20302;-84
2023/09/19 10:50:46;;;;;;;10.75;2.30;;;19.90;98.00;;;;;;5051095;28;20246;-82
2023/09/19 10:53:15;;;;;;;8.02;2.65;;;19.80;97.60;;;;;;5048530;28;20254;-83
2023/09/19 10:55:48;;;;;;;8.95;2.10;;;19.80;97.90;;;;;;5049346;28;20229;-84
2023/09/19 10:58:28;;;;;;;5.43;2.05;;;19.70;97.80;;;;;;5047256;28;20741;-84
2023/09/19 11:00:56;;;;;;;7.00;2.58;;;19.60;97.40;;;;;;5045758;28;20276;-83
2023/09/19 11:03:30;;;;;;;5.90;1.80;;;19.50;97.20;;;;;;5057381;28;20314;-83
2023/09/19 11:06:06;;;;;;;5.50;2.20;;;19.50;97.60;;;;;;5042331;28;20216;-83
2023/09/19 11:09:00;;;;;;;7.78;2.03;;;19.50;97.90;;;;;;5045221;28;20223;-82
2023/09/19 11:11:46;;;;;;;6.47;2.00;;;19.50;98.20;;;;;;5060541;28;20940;-82
2023/09/19 11:14:30;;;;;;;4.80;1.65;;;19.60;98.20;;;;;;5042163;28;20230;-82
2023/09/19 11:17:32;;;;;;;6.72;2.00;;;19.60;97.80;;;;;;5047896;28;20627;-85
2023/09/19 11:23:24;;;;;;;5.32;1.70;;;19.70;96.80;;;;;;5058041;28;20227;-83
2023/09/19 11:25:53;;;;;;;5.53;2.03;;;19.70;97.30;;;;;;5077444;28;20226;-83
2023/09/19 11:28:38;;;;;;;8.55;2.05;;;19.80;97.40;;;;;;5074767;28;20227;-85
2023/09/19 11:31:51;;;;;;;8.65;2.00;;;19.70;97.40;;;;;;5059836;28;20306;-84
2023/09/19 11:34:46;;;;;;;8.43;2.40;;;19.70;97.00;;;;;;5078414;28;20223;-82
2023/09/19 11:38:02;;;;;;;5.18;1.85;;;19.70;96.30;;;;;;5076364;28;20791;-83
2023/09/19 11:40:30;;;;;;;7.13;1.92;;;19.70;96.60;;;;;;5076854;28;20231;-82
2023/09/19 11:42:57;;;;;;;6.25;1.92;;;19.80;97.00;;;;;;5066216;28;20222;-83
2023/09/19 11:46:04;;;;;;;4.50;1.90;;;19.80;97.20;;;;;;5065040;28;20234;-83
2023/09/19 11:48:34;;;;;;;4.68;1.75;;;19.80;97.10;;;;;;5043735;28;20576;-83
2023/09/19 11:51:11;;;;;;;4.80;1.98;;;19.90;97.10;;;;;;5077462;28;20228;-84
2023/09/19 11:53:43;;;;;;;6.05;2.45;;;19.90;97.00;;;;;;5080275;28;20215;-84
2023/09/19 11:56:11;;;;;;;6.25;2.10;;;19.90;96.70;;;;;;5060835;28;20227;-83
2023/09/19 11:58:39;;;;;;;10.93;2.78;;;19.90;96.80;;;;;;5061353;28;20221;-83
2023/09/19 12:01:12;;;;;;;5.45;2.13;;;19.90;96.90;;;;;;5076766;28;20250;-83
2023/09/19 12:03:42;;;;;;;5.82;2.40;;;19.90;96.60;;;;;;5061899;28;20216;-83
2023/09/19 12:06:15;;;;;;;5.40;1.70;;;19.90;96.50;;;;;;5055350;28;20302;-82
2023/09/19 12:08:43;;;;;;;7.80;2.20;;;19.90;96.80;;;;;;5054902;28;20697;-82
2023/09/19 12:11:14;;;;;;;4.95;2.05;;;20.00;96.60;;;;;;5060085;28;20280;-82
2023/09/19 12:13:44;;;;;;;8.20;2.13;;;20.10;96.60;;;;;;5074788;28;20728;-82
2023/09/19 12:16:15;;;;;;;7.65;2.08;;;20.10;95.90;;;;;;5062440;28;20314;-83
2023/09/19 12:18:42;;;;;;;5.68;2.38;;;20.20;95.80;;;;;;5075793;28;20305;-82
2023/09/19 12:21:22;;;;;;;5.85;1.88;;;20.20;96.30;;;;;;5063792;28;20251;-82
2023/09/19 12:24:13;;;;;;;4.93;1.98;;;20.20;96.00;;;;;;5071367;28;20222;-84
2023/09/19 12:26:45;;;;;;;5.38;1.83;;;20.20;96.30;;;;;;5063522;28;20219;-83
2023/09/19 12:29:18;;;;;;;5.55;2.50;;;20.10;95.70;;;;;;5064756;28;20254;-82
2023/09/19 12:31:57;;;;;;;5.32;1.88;;;20.10;95.80;;;;;;5055254;28;20215;-82
2023/09/19 12:34:28;;;;;;;5.47;1.90;;;20.10;95.70;;;;;;5066481;28;20246;-82
2023/09/19 12:37:11;;;;;;;7.18;2.30;;;20.20;95.90;;;;;;5057310;28;21137;-82
2023/09/19 12:39:41;;;;;;;5.10;2.20;;;20.10;95.10;;;;;;5063868;28;20770;-82
2023/09/19 12:42:10;;;;;;;6.10;1.90;;;20.20;96.00;;;;;;5061498;28;20215;-82
2023/09/19 12:44:38;;;;;;;5.20;2.35;;;20.20;96.60;;;;;;5061964;28;20223;-83
2023/09/19 12:47:15;;;;;;;7.43;3.00;;;20.40;95.70;;;;;;5074846;28;20756;-84
2023/09/19 12:50:13;;;;;;;5.55;2.30;;;20.40;94.70;;;;;;5067739;28;20229;-82
2023/09/19 12:52:40;;;;;;;7.20;2.75;;;20.40;95.00;;;;;;5052227;28;20681;-83
2023/09/19 12:55:17;;;;;;;8.30;2.30;;;20.40;94.80;;;;;;5063893;28;20306;-83
2023/09/19 12:57:44;;;;;;;9.57;2.22;;;20.40;95.00;;;;;;5074186;28;20220;-82
2023/09/19 13:00:12;;;;;;;10.38;2.45;;;20.50;94.70;;;;;;5072159;28;20306;-82
2023/09/19 13:02:59;;;;;;;5.40;2.10;;;20.50;94.70;;;;;;5080181;28;20253;-84
2023/09/19 13:05:51;;;;;;;5.45;2.42;;;20.50;94.80;;;;;;5076941;28;20570;-84
2023/09/19 13:08:20;;;;;;;9.75;2.67;;;20.50;94.60;;;;;;5062235;28;20285;-82